Time;durP1;ratioP1;P1;durP2;ratioP2;P2;SDS_P1;SDS_P2;PMS_P1;PMS_P2;Temp;Humidity;BMP_temperature;BMP_pressure;BME280_temperature;BME280_humidity;BME280_pressure;Samples;Min_cycle;Max_cycle;Signal;HPM_P1;HPM_P2
2022/04/15 00:01:20;;;;;;;1.50;0.80;;;16.90;61.00;;;;;;4991091;28;20057;-73
2022/04/15 00:03:46;;;;;;;4.22;0.90;;;16.90;61.00;;;;;;4993820;28;20050;-72
2022/04/15 00:06:12;;;;;;;4.03;0.80;;;16.90;61.00;;;;;;4964730;28;20090;-72
2022/04/15 00:08:38;;;;;;;3.38;0.88;;;16.90;61.00;;;;;;5013411;28;20088;-73
2022/04/15 00:11:04;;;;;;;1.70;0.52;;;16.90;61.10;;;;;;5016514;28;20131;-73
2022/04/15 00:13:31;;;;;;;2.63;0.60;;;16.90;61.00;;;;;;5016808;28;20454;-73
2022/04/15 00:15:59;;;;;;;2.00;0.80;;;16.90;61.60;;;;;;5016442;28;20537;-74
2022/04/15 00:18:25;;;;;;;1.27;0.70;;;16.80;60.90;;;;;;5016922;28;20045;-72
2022/04/15 00:20:53;;;;;;;3.80;0.85;;;16.80;60.90;;;;;;5001528;28;20477;-73
2022/04/15 00:23:22;;;;;;;2.78;0.77;;;16.80;60.90;;;;;;4997607;28;20074;-72
2022/04/15 00:25:49;;;;;;;1.52;0.88;;;16.80;60.90;;;;;;4997631;28;20065;-73
2022/04/15 00:28:15;;;;;;;1.88;0.82;;;16.80;60.90;;;;;;4997535;28;20038;-74
2022/04/15 00:30:40;;;;;;;2.28;0.98;;;16.80;60.90;;;;;;5012494;28;20054;-74
2022/04/15 00:33:06;;;;;;;2.45;0.75;;;16.80;60.90;;;;;;4980068;28;20050;-73
2022/04/15 00:35:32;;;;;;;1.67;0.80;;;16.80;60.90;;;;;;5010620;28;20057;-74
2022/04/15 00:37:57;;;;;;;2.13;0.47;;;16.70;60.80;;;;;;5007591;28;20339;-73
2022/04/15 00:40:23;;;;;;;1.40;0.82;;;16.70;60.80;;;;;;4988323;28;20042;-72
2022/04/15 00:42:49;;;;;;;2.25;0.60;;;16.70;60.90;;;;;;4980499;28;20054;-73
2022/04/15 00:45:15;;;;;;;1.55;0.70;;;16.70;60.90;;;;;;4997108;28;20039;-72
2022/04/15 00:47:53;;;;;;;1.55;0.50;;;16.70;60.90;;;;;;4980221;28;20061;-74
2022/04/15 00:50:25;;;;;;;1.52;0.50;;;16.70;60.80;;;;;;5008396;28;20045;-73
2022/04/15 00:52:53;;;;;;;3.42;0.60;;;16.70;60.80;;;;;;5016179;28;20057;-73
2022/04/15 00:55:21;;;;;;;5.03;0.80;;;16.70;60.90;;;;;;4996988;28;20355;-73
2022/04/15 00:57:53;;;;;;;2.20;0.60;;;16.70;60.80;;;;;;5011011;28;20366;-73
2022/04/15 01:00:20;;;;;;;2.28;0.60;;;16.70;60.80;;;;;;4994661;28;20038;-74
2022/04/15 01:02:46;;;;;;;0.80;0.50;;;16.60;60.80;;;;;;4996396;28;20430;-73
2022/04/15 01:05:13;;;;;;;2.28;0.60;;;16.60;60.80;;;;;;5006626;28;20361;-73
2022/04/15 01:07:42;;;;;;;1.73;0.50;;;16.60;60.70;;;;;;4985600;28;20046;-73
2022/04/15 01:10:10;;;;;;;4.03;0.80;;;16.60;60.70;;;;;;4996356;28;20061;-72
2022/04/15 01:12:47;;;;;;;2.70;0.60;;;16.60;60.70;;;;;;4984094;28;20050;-72
2022/04/15 01:15:14;;;;;;;2.03;0.68;;;16.60;60.60;;;;;;5014467;28;20121;-74
2022/04/15 01:17:41;;;;;;;0.95;0.40;;;16.60;60.70;;;;;;5014406;28;20037;-73
2022/04/15 01:20:09;;;;;;;1.33;0.63;;;16.60;60.70;;;;;;4981819;28;20046;-72
2022/04/15 01:22:42;;;;;;;3.40;0.75;;;16.60;60.70;;;;;;4996311;28;20129;-73
2022/04/15 01:25:12;;;;;;;1.50;0.55;;;16.60;60.70;;;;;;4995933;28;20117;-73
2022/04/15 01:27:40;;;;;;;1.13;0.40;;;16.60;60.70;;;;;;4988596;28;20096;-73
2022/04/15 01:30:11;;;;;;;2.03;0.73;;;16.60;60.80;;;;;;4995726;28;20069;-75
2022/04/15 01:32:36;;;;;;;1.08;0.50;;;16.60;60.80;;;;;;5000423;28;20053;-72
2022/04/15 01:35:03;;;;;;;2.42;0.73;;;16.50;60.90;;;;;;4994590;28;20042;-75
2022/04/15 01:37:30;;;;;;;2.63;0.50;;;16.60;61.00;;;;;;4995944;28;20050;-71
2022/04/15 01:39:56;;;;;;;2.47;0.60;;;16.60;61.00;;;;;;4979113;28;20454;-72
2022/04/15 01:42:22;;;;;;;2.55;0.57;;;16.50;61.00;;;;;;4996123;28;20048;-72
2022/04/15 01:44:49;;;;;;;2.08;0.40;;;16.50;60.90;;;;;;4996138;28;20339;-75
2022/04/15 01:47:16;;;;;;;2.20;0.55;;;16.50;61.00;;;;;;4996207;28;20081;-72
2022/04/15 01:49:42;;;;;;;0.70;0.40;;;16.50;61.10;;;;;;4996207;28;20038;-72
2022/04/15 01:52:08;;;;;;;2.35;0.65;;;16.50;61.10;;;;;;4995949;28;20042;-73
2022/04/15 01:54:34;;;;;;;1.38;0.60;;;16.50;61.00;;;;;;5014903;28;20428;-73
2022/04/15 01:57:00;;;;;;;1.42;0.57;;;16.50;61.70;;;;;;4994206;28;20125;-75
2022/04/15 01:59:26;;;;;;;1.77;0.68;;;16.50;61.10;;;;;;4978529;28;20355;-73
2022/04/15 02:01:55;;;;;;;2.25;0.73;;;16.50;61.10;;;;;;4997164;28;20089;-73
2022/04/15 02:04:22;;;;;;;2.65;0.50;;;16.50;61.10;;;;;;4978918;28;20054;-73
2022/04/15 02:06:48;;;;;;;1.50;0.43;;;16.50;61.10;;;;;;4995857;28;20167;-74
2022/04/15 02:09:14;;;;;;;2.83;0.77;;;16.50;61.10;;;;;;4986885;28;20117;-74
2022/04/15 02:11:39;;;;;;;2.13;0.68;;;16.50;61.10;;;;;;4986788;28;20046;-74
2022/04/15 02:14:06;;;;;;;2.28;0.45;;;16.50;61.00;;;;;;4995529;28;20049;-73
2022/04/15 02:16:33;;;;;;;2.83;0.80;;;16.50;61.00;;;;;;5013137;28;20081;-72
2022/04/15 02:18:58;;;;;;;2.33;0.80;;;16.50;61.10;;;;;;5014932;28;20470;-73
2022/04/15 02:21:24;;;;;;;2.60;0.60;;;16.50;61.10;;;;;;5006428;28;20069;-72
2022/04/15 02:23:50;;;;;;;2.50;0.70;;;16.50;61.10;;;;;;4987439;28;20493;-72
2022/04/15 02:26:15;;;;;;;3.33;0.60;;;16.50;61.00;;;;;;4978427;28;20042;-74
2022/04/15 02:28:41;;;;;;;1.52;0.50;;;16.50;61.00;;;;;;4995204;28;20053;-72
2022/04/15 02:31:07;;;;;;;1.73;0.60;;;16.50;61.00;;;;;;5001215;28;20053;-72
2022/04/15 02:33:32;;;;;;;2.25;0.70;;;16.50;61.00;;;;;;5014369;28;20111;-72
2022/04/15 02:35:58;;;;;;;2.78;0.85;;;16.50;61.00;;;;;;5014595;28;20053;-73
2022/04/15 02:38:24;;;;;;;1.42;0.50;;;16.40;61.00;;;;;;4981488;28;20038;-72
2022/04/15 02:40:50;;;;;;;1.63;0.60;;;16.50;61.10;;;;;;5006258;28;20438;-73
2022/04/15 02:43:15;;;;;;;3.38;0.70;;;16.50;61.10;;;;;;5014487;28;20121;-72
2022/04/15 02:45:42;;;;;;;3.13;0.82;;;16.50;61.20;;;;;;4997016;28;20073;-73
2022/04/15 02:48:08;;;;;;;1.95;0.60;;;16.50;61.10;;;;;;5009476;28;20361;-74
2022/04/15 02:50:34;;;;;;;1.27;0.40;;;16.50;61.10;;;;;;4991459;28;20108;-74
2022/04/15 02:53:01;;;;;;;2.40;0.52;;;16.40;61.10;;;;;;4995081;28;20050;-72
2022/04/15 02:55:27;;;;;;;2.47;0.57;;;16.40;61.20;;;;;;4995204;28;20085;-73
2022/04/15 02:57:53;;;;;;;2.22;0.40;;;16.40;61.30;;;;;;4962264;28;20057;-73
2022/04/15 03:00:19;;;;;;;1.90;0.57;;;16.40;61.20;;;;;;5009027;28;20041;-72
2022/04/15 03:02:45;;;;;;;4.00;0.90;;;16.40;61.20;;;;;;4978897;28;20084;-74
2022/04/15 03:05:11;;;;;;;3.88;1.00;;;16.40;61.30;;;;;;4994990;28;20134;-74
2022/04/15 03:07:37;;;;;;;3.45;0.80;;;16.40;61.30;;;;;;5003365;28;20057;-73
2022/04/15 03:10:05;;;;;;;3.45;0.98;;;16.40;61.30;;;;;;4986199;28;20050;-73
2022/04/15 03:12:38;;;;;;;2.40;0.80;;;16.40;61.50;;;;;;4991912;28;20046;-73
2022/04/15 03:15:06;;;;;;;2.78;0.75;;;16.30;61.50;;;;;;4995328;28;20125;-73
2022/04/15 03:17:34;;;;;;;3.35;0.98;;;16.30;61.40;;;;;;4995054;28;20061;-72
2022/04/15 03:20:02;;;;;;;3.72;0.70;;;16.30;61.50;;;;;;4994949;28;20077;-74
2022/04/15 03:22:46;;;;;;;2.63;0.60;;;16.30;61.50;;;;;;4989561;28;20061;-75
2022/04/15 03:25:17;;;;;;;4.13;0.90;;;16.30;61.30;;;;;;4996232;28;20046;-72
2022/04/15 03:27:43;;;;;;;3.67;0.93;;;16.30;61.40;;;;;;4995194;28;20090;-71
2022/04/15 03:30:11;;;;;;;3.50;1.05;;;16.30;61.50;;;;;;4995057;28;20053;-73
2022/04/15 03:32:47;;;;;;;1.55;0.70;;;16.30;61.50;;;;;;5002318;28;20053;-74
2022/04/15 03:35:15;;;;;;;1.95;1.35;;;16.30;61.50;;;;;;5002015;28;20142;-73
2022/04/15 03:37:40;;;;;;;2.13;0.65;;;16.30;61.50;;;;;;4985187;28;20049;-73
2022/04/15 03:40:07;;;;;;;3.20;1.00;;;16.30;61.40;;;;;;5017084;28;20092;-73
2022/04/15 03:42:43;;;;;;;2.33;0.82;;;16.30;61.50;;;;;;5017445;28;20049;-74
2022/04/15 03:45:09;;;;;;;2.50;0.85;;;16.30;61.40;;;;;;4989056;28;20071;-73
2022/04/15 03:47:34;;;;;;;2.00;0.90;;;16.30;61.40;;;;;;4981491;28;20058;-73
2022/04/15 03:50:00;;;;;;;2.80;0.90;;;16.30;61.50;;;;;;4998264;28;20046;-73
2022/04/15 03:52:26;;;;;;;1.65;0.70;;;16.30;61.50;;;;;;4998354;28;20046;-74
2022/04/15 03:54:51;;;;;;;2.15;0.93;;;16.30;61.50;;;;;;4998402;28;20050;-72
2022/04/15 03:57:17;;;;;;;2.05;1.20;;;16.20;61.50;;;;;;5009890;28;20069;-73
2022/04/15 03:59:43;;;;;;;1.88;0.85;;;16.20;61.50;;;;;;4984741;28;20358;-73
2022/04/15 04:02:08;;;;;;;3.25;0.93;;;16.20;61.50;;;;;;4987850;28;20065;-72
2022/04/15 04:04:34;;;;;;;2.28;0.77;;;16.20;61.60;;;;;;5014050;28;20351;-73
2022/04/15 04:07:00;;;;;;;3.47;1.05;;;16.20;61.60;;;;;;5016619;28;20116;-71
2022/04/15 04:09:25;;;;;;;1.95;0.63;;;16.20;61.60;;;;;;5017141;28;20108;-72
2022/04/15 04:11:51;;;;;;;2.38;0.80;;;16.20;61.60;;;;;;5016540;28;20045;-74
2022/04/15 04:14:17;;;;;;;1.77;0.93;;;16.20;61.50;;;;;;4988512;28;20054;-72
2022/04/15 04:16:42;;;;;;;3.63;1.50;;;16.20;61.60;;;;;;4997610;28;20421;-74
2022/04/15 04:19:08;;;;;;;3.22;1.33;;;16.20;61.60;;;;;;4980393;28;20046;-72
2022/04/15 04:21:34;;;;;;;2.80;1.10;;;16.20;61.70;;;;;;4989736;28;20477;-73
2022/04/15 04:24:00;;;;;;;3.03;1.20;;;16.20;61.60;;;;;;4997442;28;20046;-73
2022/04/15 04:26:26;;;;;;;1.88;1.02;;;16.20;61.60;;;;;;4997391;28;20100;-73
2022/04/15 04:28:51;;;;;;;3.53;1.25;;;16.20;61.60;;;;;;4992480;28;20065;-72
2022/04/15 04:31:19;;;;;;;2.92;1.42;;;16.10;61.50;;;;;;4996760;28;20046;-72
2022/04/15 04:33:44;;;;;;;3.65;1.25;;;16.10;61.50;;;;;;4997462;28;20133;-71
2022/04/15 04:36:10;;;;;;;5.00;1.60;;;16.20;61.60;;;;;;5015211;28;20129;-73
2022/04/15 04:38:37;;;;;;;4.40;1.65;;;16.20;61.60;;;;;;5016288;28;20056;-76
2022/04/15 04:41:02;;;;;;;3.03;1.50;;;16.20;61.60;;;;;;5011686;28;20038;-73
2022/04/15 04:43:29;;;;;;;5.95;2.15;;;16.20;61.60;;;;;;5013169;28;20050;-75
2022/04/15 04:45:55;;;;;;;4.13;1.92;;;16.20;61.60;;;;;;5015498;28;20495;-72
2022/04/15 04:48:21;;;;;;;3.58;1.75;;;16.20;61.60;;;;;;5014482;28;20060;-72
2022/04/15 04:50:47;;;;;;;3.65;1.63;;;16.20;61.50;;;;;;4992630;28;20533;-72
2022/04/15 04:53:13;;;;;;;7.97;2.00;;;16.20;61.50;;;;;;4996608;28;20517;-72
2022/04/15 04:55:39;;;;;;;3.53;1.95;;;16.10;61.50;;;;;;4996972;28;20129;-73
2022/04/15 04:58:04;;;;;;;3.90;1.85;;;16.10;61.60;;;;;;4996895;28;20354;-72
2022/04/15 05:00:30;;;;;;;3.60;1.98;;;16.10;61.60;;;;;;4988077;28;20070;-72
2022/04/15 05:02:56;;;;;;;5.85;1.73;;;16.10;61.70;;;;;;4996405;28;20069;-73
2022/04/15 05:05:23;;;;;;;3.20;1.42;;;16.10;61.70;;;;;;4973621;28;20125;-72
2022/04/15 05:07:49;;;;;;;6.47;2.33;;;16.10;61.70;;;;;;5012780;28;20045;-72
2022/04/15 05:10:14;;;;;;;4.22;1.63;;;16.10;61.70;;;;;;4981421;28;20053;-72
2022/04/15 05:12:40;;;;;;;2.78;1.60;;;16.10;61.70;;;;;;4979454;28;20061;-72
2022/04/15 05:15:06;;;;;;;6.22;1.88;;;16.10;62.20;;;;;;4979719;28;20046;-73
2022/04/15 05:17:32;;;;;;;2.63;1.52;;;16.10;61.50;;;;;;4996691;28;20449;-73
2022/04/15 05:19:58;;;;;;;2.38;1.33;;;16.10;61.50;;;;;;4990883;28;20090;-73
2022/04/15 05:22:23;;;;;;;1.92;1.00;;;16.20;61.40;;;;;;4996178;28;20046;-72
2022/04/15 05:24:50;;;;;;;4.50;1.73;;;16.20;61.20;;;;;;4979019;28;20034;-74
2022/04/15 05:27:16;;;;;;;5.60;1.25;;;16.40;61.20;;;;;;5012722;28;20399;-72
2022/04/15 05:29:42;;;;;;;3.40;1.10;;;16.50;61.10;;;;;;5019734;28;20057;-74
2022/04/15 05:32:08;;;;;;;2.20;1.08;;;16.70;60.90;;;;;;4983509;28;20461;-72
2022/04/15 05:34:33;;;;;;;3.35;1.20;;;16.80;60.80;;;;;;4995750;28;20046;-73
2022/04/15 05:36:59;;;;;;;3.20;1.23;;;16.80;60.60;;;;;;5010666;28;20531;-73
2022/04/15 05:39:24;;;;;;;1.20;0.60;;;17.00;60.50;;;;;;5015162;28;20374;-73
2022/04/15 05:41:53;;;;;;;4.28;1.10;;;17.00;60.40;;;;;;5010216;28;20052;-75
2022/04/15 05:44:19;;;;;;;4.15;1.15;;;16.90;60.00;;;;;;4997026;28;20108;-77
2022/04/15 05:46:45;;;;;;;4.85;1.23;;;17.00;60.30;;;;;;4986693;28;20049;-76
2022/04/15 05:49:13;;;;;;;3.60;0.88;;;16.90;58.90;;;;;;4995767;28;20534;-76
2022/04/15 05:51:42;;;;;;;2.78;0.90;;;17.00;60.00;;;;;;5014479;28;20054;-76
2022/04/15 05:54:08;;;;;;;4.22;0.98;;;17.00;60.30;;;;;;4983270;28;20042;-76
2022/04/15 05:56:34;;;;;;;5.50;1.10;;;17.00;60.30;;;;;;4995545;28;20042;-78
2022/04/15 05:59:00;;;;;;;4.65;1.30;;;17.00;59.20;;;;;;4983847;28;20041;-75
2022/04/15 06:01:25;;;;;;;4.28;0.90;;;16.70;58.50;;;;;;5009270;28;20050;-76
2022/04/15 06:03:51;;;;;;;11.23;1.05;;;16.70;60.50;;;;;;4996891;28;20061;-75
2022/04/15 06:06:17;;;;;;;4.28;1.30;;;16.80;60.90;;;;;;4996095;28;20501;-74
2022/04/15 06:08:43;;;;;;;7.22;1.35;;;16.80;59.80;;;;;;4993557;28;20128;-77
2022/04/15 06:11:08;;;;;;;5.15;1.35;;;16.90;61.10;;;;;;4995346;28;20054;-76
2022/04/15 06:13:34;;;;;;;6.70;0.90;;;16.90;61.30;;;;;;5004013;28;20046;-75
2022/04/15 06:16:00;;;;;;;5.38;1.02;;;17.00;61.40;;;;;;4985443;28;20096;-76
2022/04/15 06:18:34;;;;;;;7.50;1.70;;;17.20;61.30;;;;;;4995561;28;20128;-72
2022/04/15 06:21:00;;;;;;;13.00;1.80;;;17.30;61.50;;;;;;4995687;28;20355;-76
2022/04/15 06:23:26;;;;;;;6.35;1.40;;;17.40;61.80;;;;;;4978778;28;20046;-75
2022/04/15 06:25:53;;;;;;;7.15;1.20;;;17.50;61.90;;;;;;4986653;28;20050;-75
2022/04/15 06:28:21;;;;;;;6.07;1.25;;;17.50;61.80;;;;;;5001845;28;20037;-75
2022/04/15 06:30:50;;;;;;;6.28;1.05;;;17.70;62.00;;;;;;4996559;28;20042;-76
2022/04/15 06:33:19;;;;;;;6.30;1.15;;;17.80;62.00;;;;;;4995177;28;20115;-74
2022/04/15 06:35:46;;;;;;;8.15;1.98;;;17.80;59.70;;;;;;4978110;28;20377;-76
2022/04/15 06:38:12;;;;;;;7.90;1.75;;;17.70;59.80;;;;;;5000506;28;20415;-77
2022/04/15 06:40:40;;;;;;;4.88;1.08;;;17.50;60.00;;;;;;4995046;28;20085;-75
2022/04/15 06:43:06;;;;;;;9.05;1.35;;;17.50;61.30;;;;;;4995524;28;20049;-77
2022/04/15 06:45:33;;;;;;;3.25;0.82;;;17.60;61.50;;;;;;4996622;28;20171;-73
2022/04/15 06:47:58;;;;;;;2.80;1.30;;;17.60;61.40;;;;;;4986466;28;20038;-75
2022/04/15 06:50:24;;;;;;;4.22;0.88;;;17.70;61.40;;;;;;4995036;28;20042;-75
2022/04/15 06:52:50;;;;;;;3.08;0.88;;;17.60;61.20;;;;;;4996368;28;20062;-74
2022/04/15 06:55:17;;;;;;;5.45;1.42;;;17.70;61.10;;;;;;5014343;28;20073;-75
2022/04/15 06:57:42;;;;;;;4.03;0.85;;;17.70;61.00;;;;;;5013024;28;20049;-76
2022/04/15 07:00:11;;;;;;;7.00;0.80;;;17.60;60.90;;;;;;4995348;28;20042;-76
2022/04/15 07:02:37;;;;;;;3.72;0.90;;;17.60;60.80;;;;;;4995334;28;20133;-75
2022/04/15 07:05:09;;;;;;;2.58;0.98;;;17.60;60.80;;;;;;4995145;28;20053;-74
2022/04/15 07:07:38;;;;;;;5.07;0.98;;;17.60;60.80;;;;;;4978605;28;20047;-75
2022/04/15 07:10:05;;;;;;;3.30;1.10;;;17.50;60.70;;;;;;5013781;28;20488;-75
2022/04/15 07:12:31;;;;;;;5.75;0.98;;;17.50;61.30;;;;;;5013909;28;20089;-74
2022/04/15 07:14:57;;;;;;;4.25;1.30;;;17.50;60.80;;;;;;4981772;28;20054;-75
2022/04/15 07:17:24;;;;;;;3.45;1.02;;;17.50;60.70;;;;;;4998717;28;20374;-76
2022/04/15 07:19:50;;;;;;;3.03;1.00;;;17.50;60.80;;;;;;4989765;28;20050;-76
2022/04/15 07:22:19;;;;;;;2.75;1.55;;;17.40;60.10;;;;;;4989289;28;20062;-77
2022/04/15 07:24:46;;;;;;;5.25;1.55;;;17.30;60.10;;;;;;4998408;28;20347;-75
2022/04/15 07:27:12;;;;;;;4.25;1.55;;;17.30;60.10;;;;;;5009928;28;20108;-74
2022/04/15 07:29:38;;;;;;;5.03;1.42;;;17.20;60.20;;;;;;5010796;28;20050;-76
2022/04/15 07:32:04;;;;;;;4.95;1.60;;;17.20;60.40;;;;;;5006166;28;20082;-77
2022/04/15 07:34:30;;;;;;;9.40;1.83;;;17.10;60.50;;;;;;5017604;28;20068;-74
2022/04/15 07:36:57;;;;;;;4.63;2.50;;;17.00;60.60;;;;;;5016978;28;20545;-75
2022/04/15 07:39:24;;;;;;;3.63;2.13;;;16.70;60.30;;;;;;4996995;28;20458;-76
2022/04/15 07:41:50;;;;;;;4.28;2.75;;;16.70;60.30;;;;;;5014919;28;20042;-74
2022/04/15 07:44:16;;;;;;;8.93;2.67;;;16.50;60.10;;;;;;5004869;28;20038;-75
2022/04/15 07:46:43;;;;;;;10.25;2.70;;;16.40;60.40;;;;;;4985416;28;20047;-73
2022/04/15 07:49:09;;;;;;;7.00;2.72;;;16.40;61.00;;;;;;4996091;28;20120;-76
2022/04/15 07:51:36;;;;;;;8.95;2.58;;;16.40;61.50;;;;;;4997975;28;20058;-75
2022/04/15 07:54:03;;;;;;;8.98;2.33;;;16.50;61.60;;;;;;5013614;28;20050;-75
2022/04/15 07:56:29;;;;;;;7.20;2.47;;;16.40;61.50;;;;;;5017476;28;20077;-76
2022/04/15 07:58:54;;;;;;;7.07;2.28;;;16.50;62.30;;;;;;5017043;28;20092;-75
2022/04/15 08:01:21;;;;;;;5.80;2.00;;;16.60;62.60;;;;;;5006003;28;20069;-78
2022/04/15 08:03:47;;;;;;;4.60;2.17;;;16.60;62.90;;;;;;5017046;28;20370;-75
2022/04/15 08:06:14;;;;;;;10.23;3.20;;;16.70;63.00;;;;;;5012676;28;20049;-77
2022/04/15 08:08:39;;;;;;;11.13;3.20;;;16.80;63.00;;;;;;5003253;28;20050;-74
2022/04/15 08:11:05;;;;;;;12.00;3.60;;;16.80;63.00;;;;;;4997876;28;20073;-77
2022/04/15 08:13:32;;;;;;;12.18;3.10;;;16.80;63.00;;;;;;5009129;28;20042;-76
2022/04/15 08:15:58;;;;;;;11.73;2.97;;;16.90;63.00;;;;;;5001185;28;20069;-80
2022/04/15 08:18:24;;;;;;;12.10;3.83;;;16.90;63.10;;;;;;4997727;28;20038;-77
2022/04/15 08:20:52;;;;;;;11.52;3.53;;;16.90;63.30;;;;;;5004399;28;20045;-77
2022/04/15 08:23:21;;;;;;;9.90;3.60;;;16.80;63.50;;;;;;5016400;28;20468;-77
2022/04/15 08:25:46;;;;;;;9.45;3.28;;;16.90;63.50;;;;;;5016790;28;20049;-76
2022/04/15 08:28:13;;;;;;;9.88;3.75;;;16.80;62.50;;;;;;5011748;28;20491;-76
2022/04/15 08:30:38;;;;;;;7.63;3.15;;;16.80;62.50;;;;;;4990450;28;20050;-77
2022/04/15 08:33:05;;;;;;;11.98;2.40;;;16.70;62.20;;;;;;4997895;28;20052;-76
2022/04/15 08:35:32;;;;;;;7.97;3.05;;;16.70;63.50;;;;;;4995304;28;20057;-75
2022/04/15 08:37:58;;;;;;;9.27;2.72;;;16.80;64.30;;;;;;4981528;28;20125;-77
2022/04/15 08:40:36;;;;;;;12.20;3.08;;;16.90;65.20;;;;;;5010544;28;20568;-76
2022/04/15 08:43:06;;;;;;;9.25;2.78;;;16.90;64.90;;;;;;4983800;28;20042;-79
2022/04/15 08:45:35;;;;;;;6.20;2.85;;;16.90;64.60;;;;;;4999828;28;20097;-78
2022/04/15 08:48:08;;;;;;;12.05;3.08;;;17.00;64.50;;;;;;5009512;28;20041;-80
2022/04/15 08:50:36;;;;;;;15.27;3.08;;;17.00;64.60;;;;;;4990215;28;20369;-78
2022/04/15 08:53:04;;;;;;;16.77;2.40;;;17.00;65.10;;;;;;5015145;28;20038;-82
2022/04/15 08:55:31;;;;;;;10.05;2.75;;;17.00;65.20;;;;;;4979857;28;20038;-81
2022/04/15 08:57:57;;;;;;;12.63;2.50;;;17.00;65.10;;;;;;4968164;28;20038;-78
2022/04/15 09:00:24;;;;;;;9.52;2.67;;;17.10;65.50;;;;;;5004244;28;20042;-76
2022/04/15 09:02:51;;;;;;;10.68;3.00;;;17.10;66.20;;;;;;4984691;28;20065;-74
2022/04/15 09:05:22;;;;;;;8.90;2.63;;;17.20;67.00;;;;;;5013796;28;20366;-74
2022/04/15 09:07:49;;;;;;;10.55;2.60;;;17.20;65.60;;;;;;5013796;28;20041;-73
2022/04/15 09:10:18;;;;;;;13.15;3.15;;;17.20;65.50;;;;;;5007278;28;20042;-77
2022/04/15 09:12:46;;;;;;;15.48;2.92;;;17.20;65.50;;;;;;4996302;28;20094;-73
2022/04/15 09:15:13;;;;;;;13.63;2.95;;;17.10;61.60;;;;;;4982704;28;20062;-73
2022/04/15 09:17:41;;;;;;;6.32;2.35;;;17.00;61.20;;;;;;4996129;28;20042;-73
2022/04/15 09:20:09;;;;;;;9.75;3.03;;;16.80;60.90;;;;;;4999612;28;20038;-78
2022/04/15 09:22:36;;;;;;;8.63;3.03;;;16.70;62.10;;;;;;4979685;28;20046;-69
2022/04/15 09:25:02;;;;;;;8.55;2.47;;;16.70;63.80;;;;;;4996116;28;20042;-72
2022/04/15 09:27:28;;;;;;;7.50;3.10;;;16.60;63.10;;;;;;5004395;28;20437;-72
2022/04/15 09:29:54;;;;;;;21.83;3.97;;;16.60;63.80;;;;;;4996479;28;20121;-73
2022/04/15 09:32:22;;;;;;;12.57;3.40;;;16.70;64.60;;;;;;4996244;28;20043;-74
2022/04/15 09:35:04;;;;;;;17.85;3.85;;;16.80;64.80;;;;;;4996498;28;20425;-73
2022/04/15 09:37:34;;;;;;;6.15;3.75;;;16.90;64.00;;;;;;4987889;28;20194;-72
2022/04/15 09:40:25;;;;;;;8.35;2.97;;;17.00;62.10;;;;;;4996212;28;20178;-74
2022/04/15 09:42:55;;;;;;;10.45;3.22;;;17.00;61.30;;;;;;5002510;28;20053;-72
2022/04/15 09:45:34;;;;;;;10.38;2.67;;;16.90;61.70;;;;;;5014920;28;20049;-74
2022/04/15 09:48:00;;;;;;;9.38;3.15;;;17.00;61.80;;;;;;5002802;28;20042;-72
2022/04/15 09:50:27;;;;;;;9.65;2.92;;;17.00;61.20;;;;;;4996321;28;20048;-72
2022/04/15 09:53:12;;;;;;;10.65;3.63;;;16.90;61.40;;;;;;4996416;28;20046;-72
2022/04/15 09:55:42;;;;;;;10.07;3.67;;;16.90;61.50;;;;;;4992757;28;20462;-72
2022/04/15 09:58:19;;;;;;;14.30;3.13;;;16.90;61.10;;;;;;4992344;28;20501;-73
2022/04/15 10:00:48;;;;;;;11.77;3.15;;;16.90;63.00;;;;;;5005267;28;20042;-74
2022/04/15 10:03:25;;;;;;;15.00;3.10;;;17.00;63.80;;;;;;4983869;28;20046;-73
2022/04/15 10:05:54;;;;;;;13.85;3.13;;;17.10;64.50;;;;;;4995199;28;20561;-73
2022/04/15 10:08:21;;;;;;;15.45;3.35;;;17.10;64.50;;;;;;4995709;28;20049;-71
2022/04/15 10:10:50;;;;;;;16.10;2.83;;;17.10;63.20;;;;;;4995189;28;20097;-77
2022/04/15 10:13:17;;;;;;;10.23;2.88;;;17.10;62.10;;;;;;4989163;28;20042;-73
2022/04/15 10:15:43;;;;;;;9.82;2.97;;;17.20;62.70;;;;;;4975666;28;20479;-72
2022/04/15 10:18:09;;;;;;;13.18;3.00;;;17.20;63.20;;;;;;4999939;28;20144;-74
2022/04/15 10:20:39;;;;;;;6.50;2.58;;;17.20;62.90;;;;;;4984462;28;20462;-73
2022/04/15 10:23:12;;;;;;;6.97;2.80;;;17.20;62.40;;;;;;4995308;28;20428;-73
2022/04/15 10:25:42;;;;;;;;;;;17.10;61.60;;;;;;5014499;28;20450;-74
2022/04/15 10:28:11;;;;;;;10.80;2.65;;;17.10;62.50;;;;;;5011557;28;19987;-73
2022/04/15 10:30:44;;;;;;;10.60;2.20;;;17.20;64.20;;;;;;5014274;28;20111;-72
2022/04/15 10:33:26;;;;;;;10.75;2.13;;;17.10;62.10;;;;;;5014447;28;20052;-73
2022/04/15 10:35:58;;;;;;;8.05;2.67;;;17.20;63.10;;;;;;5014108;28;20104;-73
2022/04/15 10:38:24;;;;;;;15.88;3.28;;;17.20;62.80;;;;;;5014390;28;20334;-74
2022/04/15 10:40:51;;;;;;;7.68;3.00;;;17.20;62.50;;;;;;5011734;28;20060;-70
2022/04/15 10:43:28;;;;;;;5.60;2.80;;;17.20;61.60;;;;;;5009692;28;20109;-69
2022/04/15 10:46:14;;;;;;;6.30;2.78;;;17.30;59.70;;;;;;5012295;28;20046;-73
2022/04/15 10:48:41;;;;;;;8.32;2.90;;;17.20;58.60;;;;;;5008943;28;20092;-72
2022/04/15 10:51:29;;;;;;;12.13;2.63;;;17.10;59.00;;;;;;4999006;28;20046;-73
2022/04/15 10:54:15;;;;;;;5.10;2.33;;;17.10;59.10;;;;;;4998955;28;20096;-72
2022/04/15 10:57:09;;;;;;;7.85;2.08;;;17.20;59.40;;;;;;4998491;28;20481;-72
2022/04/15 11:02:46;;;;;;;5.68;2.63;;;17.20;60.70;;;;;;4994577;28;20057;-73
2022/04/15 11:05:36;;;;;;;6.93;2.08;;;17.30;61.50;;;;;;5016528;28;20105;-72
2022/04/15 11:08:06;;;;;;;4.78;1.92;;;17.30;61.50;;;;;;4982674;28;20046;-72
2022/04/15 11:10:42;;;;;;;5.20;2.33;;;17.30;61.80;;;;;;4997725;28;20061;-73
2022/04/15 11:13:09;;;;;;;5.35;2.10;;;17.30;61.80;;;;;;4998806;28;20058;-72
2022/04/15 11:15:57;;;;;;;5.80;2.05;;;17.30;61.90;;;;;;4998572;28;20042;-72
2022/04/15 11:18:24;;;;;;;5.30;2.97;;;17.30;61.40;;;;;;5006710;28;20496;-73
2022/04/15 11:20:50;;;;;;;5.32;2.40;;;17.40;60.60;;;;;;4998920;28;20046;-74
2022/04/15 11:23:16;;;;;;;6.13;2.53;;;17.30;59.80;;;;;;4999020;28;20124;-73
2022/04/15 11:25:43;;;;;;;7.75;2.78;;;17.30;59.40;;;;;;4998830;28;20057;-72
2022/04/15 11:28:09;;;;;;;11.55;2.92;;;17.30;58.90;;;;;;5008493;28;20046;-72
2022/04/15 11:30:35;;;;;;;5.38;2.15;;;17.30;59.30;;;;;;4987265;28;20137;-74
2022/04/15 11:33:07;;;;;;;5.47;2.47;;;17.30;59.20;;;;;;4997945;28;20054;-75
2022/04/15 11:35:34;;;;;;;7.75;2.38;;;17.30;60.20;;;;;;5004042;28;20096;-73
2022/04/15 11:38:08;;;;;;;10.93;2.42;;;17.30;60.70;;;;;;5008812;28;20070;-72
2022/04/15 11:40:34;;;;;;;;;;;17.30;62.00;;;;;;4989737;28;20397;-73
2022/04/15 11:43:05;;;;;;;9.60;3.10;;;17.30;64.20;;;;;;4980852;28;20231;-73
2022/04/15 11:45:43;;;;;;;7.85;2.63;;;17.30;63.40;;;;;;4990880;28;20046;-73
2022/04/15 11:48:20;;;;;;;13.23;2.65;;;17.30;63.80;;;;;;4997895;28;20050;-73
2022/04/15 11:50:48;;;;;;;9.07;2.47;;;17.40;64.70;;;;;;4998024;28;20184;-72
2022/04/15 11:53:15;;;;;;;8.45;2.38;;;17.40;63.50;;;;;;4999985;28;20057;-71
2022/04/15 11:55:52;;;;;;;7.28;2.47;;;17.40;64.30;;;;;;4996137;28;20137;-71
2022/04/15 11:58:19;;;;;;;4.75;2.03;;;17.40;64.40;;;;;;4980463;28;20078;-71
2022/04/15 12:00:51;;;;;;;6.43;2.15;;;17.40;64.80;;;;;;4997532;28;20046;-72
2022/04/15 12:03:18;;;;;;;11.38;2.67;;;17.40;65.30;;;;;;4980187;28;20176;-72
2022/04/15 12:05:44;;;;;;;8.32;2.50;;;17.40;65.10;;;;;;5011224;28;20069;-71
2022/04/15 12:08:09;;;;;;;9.35;2.40;;;17.40;64.50;;;;;;5010169;28;20038;-71
2022/04/15 12:10:39;;;;;;;8.35;2.30;;;17.50;64.10;;;;;;4998258;28;20169;-72
2022/04/15 12:13:08;;;;;;;11.05;2.38;;;17.50;64.80;;;;;;5005417;28;20103;-71
2022/04/15 12:15:35;;;;;;;5.68;2.33;;;17.50;64.60;;;;;;4987691;28;20193;-70
2022/04/15 12:18:03;;;;;;;12.13;2.25;;;17.50;64.90;;;;;;4983018;28;20061;-73
2022/04/15 12:20:30;;;;;;;4.80;1.70;;;17.50;64.70;;;;;;5016324;28;20060;-72
2022/04/15 12:22:59;;;;;;;5.18;2.47;;;17.50;64.70;;;;;;5015579;28;20473;-72
2022/04/15 12:25:26;;;;;;;10.07;2.17;;;17.50;64.90;;;;;;5016132;28;20054;-71
2022/04/15 12:27:55;;;;;;;5.95;2.13;;;17.50;64.90;;;;;;4985825;28;20064;-71
2022/04/15 12:30:39;;;;;;;7.07;2.38;;;17.50;64.50;;;;;;4997249;28;20085;-71
2022/04/15 12:33:07;;;;;;;3.95;1.73;;;17.50;65.20;;;;;;5012625;28;20053;-72
2022/04/15 12:35:33;;;;;;;6.15;2.35;;;17.40;65.00;;;;;;5012166;28;20133;-72
2022/04/15 12:38:00;;;;;;;10.27;2.30;;;17.50;65.10;;;;;;5016291;28;20473;-72
2022/04/15 12:40:31;;;;;;;7.88;1.88;;;17.50;64.80;;;;;;4998788;28;20124;-70
2022/04/15 12:43:08;;;;;;;7.93;2.45;;;17.50;64.80;;;;;;5002630;28;20035;-73
2022/04/15 12:45:50;;;;;;;14.82;2.50;;;17.50;64.90;;;;;;4997171;28;20156;-71
2022/04/15 12:48:16;;;;;;;5.97;2.30;;;17.50;64.20;;;;;;5009039;28;20042;-75
2022/04/15 12:50:45;;;;;;;5.85;2.85;;;17.50;63.20;;;;;;4987317;28;20056;-73
2022/04/15 12:53:17;;;;;;;7.85;2.17;;;17.40;62.40;;;;;;4996668;28;20060;-75